sensor_id;sensor_type;location;lat;lon;timestamp;temperature;humidity
17483;DHT22;8858;52.308;20.994;2023-06-10T00:00:53;20.30;99.90
17483;DHT22;8858;52.308;20.994;2023-06-10T00:03:23;20.30;99.90
17483;DHT22;8858;52.308;20.994;2023-06-10T00:05:52;20.30;99.90
17483;DHT22;8858;52.308;20.994;2023-06-10T00:08:21;20.30;99.90
17483;DHT22;8858;52.308;20.994;2023-06-10T00:10:51;20.20;99.90
17483;DHT22;8858;52.308;20.994;2023-06-10T00:13:20;20.20;99.90
17483;DHT22;8858;52.308;20.994;2023-06-10T00:15:49;20.10;99.90
17483;DHT22;8858;52.308;20.994;2023-06-10T00:18:42;20.10;99.90
17483;DHT22;8858;52.308;20.994;2023-06-10T00:21:11;20.00;99.90
17483;DHT22;8858;52.308;20.994;2023-06-10T00:23:40;19.90;99.90
17483;DHT22;8858;52.308;20.994;2023-06-10T00:26:10;19.90;99.90
17483;DHT22;8858;52.308;20.994;2023-06-10T00:28:40;19.80;99.90
17483;DHT22;8858;52.308;20.994;2023-06-10T00:31:11;19.80;99.90
17483;DHT22;8858;52.308;20.994;2023-06-10T00:33:41;19.70;99.90
17483;DHT22;8858;52.308;20.994;2023-06-10T00:36:10;19.70;99.90
17483;DHT22;8858;52.308;20.994;2023-06-10T00:38:39;19.70;99.90
17483;DHT22;8858;52.308;20.994;2023-06-10T00:41:10;19.60;99.90
17483;DHT22;8858;52.308;20.994;2023-06-10T00:43:43;19.50;99.90
17483;DHT22;8858;52.308;20.994;2023-06-10T00:46:14;19.50;99.90
17483;DHT22;8858;52.308;20.994;2023-06-10T00:48:45;19.40;99.90
17483;DHT22;8858;52.308;20.994;2023-06-10T00:51:13;19.40;99.90
17483;DHT22;8858;52.308;20.994;2023-06-10T00:53:43;19.30;99.90
17483;DHT22;8858;52.308;20.994;2023-06-10T00:56:13;19.30;99.90
17483;DHT22;8858;52.308;20.994;2023-06-10T00:58:43;19.20;99.90
17483;DHT22;8858;52.308;20.994;2023-06-10T01:01:12;19.20;99.90
17483;DHT22;8858;52.308;20.994;2023-06-10T01:03:40;19.20;99.90
17483;DHT22;8858;52.308;20.994;2023-06-10T01:06:14;19.20;99.90
17483;DHT22;8858;52.308;20.994;2023-06-10T01:08:54;19.10;99.90
17483;DHT22;8858;52.308;20.994;2023-06-10T01:11:29;19.00;99.90
17483;DHT22;8858;52.308;20.994;2023-06-10T01:14:00;19.00;99.90
17483;DHT22;8858;52.308;20.994;2023-06-10T01:16:29;18.90;99.90
17483;DHT22;8858;52.308;20.994;2023-06-10T01:19:00;18.90;99.90
17483;DHT22;8858;52.308;20.994;2023-06-10T01:21:30;18.80;99.90
17483;DHT22;8858;52.308;20.994;2023-06-10T01:24:02;18.80;99.90
17483;DHT22;8858;52.308;20.994;2023-06-10T01:26:34;18.70;99.90
17483;DHT22;8858;52.308;20.994;2023-06-10T01:29:07;18.70;99.90
17483;DHT22;8858;52.308;20.994;2023-06-10T01:31:43;18.70;99.90
17483;DHT22;8858;52.308;20.994;2023-06-10T01:34:18;18.60;99.90
17483;DHT22;8858;52.308;20.994;2023-06-10T01:36:52;18.60;99.90
17483;DHT22;8858;52.308;20.994;2023-06-10T01:39:24;18.60;99.90
17483;DHT22;8858;52.308;20.994;2023-06-10T01:41:56;18.50;99.90
17483;DHT22;8858;52.308;20.994;2023-06-10T01:44:26;18.50;99.90
17483;DHT22;8858;52.308;20.994;2023-06-10T01:46:55;18.50;99.90
17483;DHT22;8858;52.308;20.994;2023-06-10T01:49:24;18.40;99.90
17483;DHT22;8858;52.308;20.994;2023-06-10T01:51:55;18.40;99.90
17483;DHT22;8858;52.308;20.994;2023-06-10T01:54:26;18.30;99.90
17483;DHT22;8858;52.308;20.994;2023-06-10T01:56:55;18.30;99.90
17483;DHT22;8858;52.308;20.994;2023-06-10T01:59:23;18.30;99.90
17483;DHT22;8858;52.308;20.994;2023-06-10T02:01:52;18.20;99.90
17483;DHT22;8858;52.308;20.994;2023-06-10T02:04:21;18.20;99.90
17483;DHT22;8858;52.308;20.994;2023-06-10T02:06:50;18.20;99.90
17483;DHT22;8858;52.308;20.994;2023-06-10T02:09:21;18.20;99.90
17483;DHT22;8858;52.308;20.994;2023-06-10T02:11:50;18.20;99.90
17483;DHT22;8858;52.308;20.994;2023-06-10T02:14:19;18.20;99.90
17483;DHT22;8858;52.308;20.994;2023-06-10T02:16:50;18.10;99.90
17483;DHT22;8858;52.308;20.994;2023-06-10T02:19:22;18.10;99.90
17483;DHT22;8858;52.308;20.994;2023-06-10T02:21:52;18.00;99.90
17483;DHT22;8858;52.308;20.994;2023-06-10T02:24:23;18.10;99.90
17483;DHT22;8858;52.308;20.994;2023-06-10T02:26:52;18.00;99.90
17483;DHT22;8858;52.308;20.994;2023-06-10T02:29:21;17.90;99.90
17483;DHT22;8858;52.308;20.994;2023-06-10T02:31:49;17.90;99.90
17483;DHT22;8858;52.308;20.994;2023-06-10T02:34:20;17.90;99.90
17483;DHT22;8858;52.308;20.994;2023-06-10T02:36:49;17.90;99.90
17483;DHT22;8858;52.308;20.994;2023-06-10T02:39:23;17.90;99.90
17483;DHT22;8858;52.308;20.994;2023-06-10T02:41:53;17.90;99.90
17483;DHT22;8858;52.308;20.994;2023-06-10T02:44:21;17.90;99.90
17483;DHT22;8858;52.308;20.994;2023-06-10T02:46:53;17.90;99.90
17483;DHT22;8858;52.308;20.994;2023-06-10T02:49:25;17.90;99.90
17483;DHT22;8858;52.308;20.994;2023-06-10T02:51:56;17.90;99.90
17483;DHT22;8858;52.308;20.994;2023-06-10T02:54:27;17.90;99.90
17483;DHT22;8858;52.308;20.994;2023-06-10T02:56:57;17.80;99.90
17483;DHT22;8858;52.308;20.994;2023-06-10T02:59:28;17.80;99.90
17483;DHT22;8858;52.308;20.994;2023-06-10T03:01:57;17.90;99.90
17483;DHT22;8858;52.308;20.994;2023-06-10T03:04:33;17.90;99.90
17483;DHT22;8858;52.308;20.994;2023-06-10T03:07:07;17.90;99.90
17483;DHT22;8858;52.308;20.994;2023-06-10T03:09:39;17.90;99.90
17483;DHT22;8858;52.308;20.994;2023-06-10T03:12:12;17.90;99.90
17483;DHT22;8858;52.308;20.994;2023-06-10T03:14:47;18.00;99.90
17483;DHT22;8858;52.308;20.994;2023-06-10T03:17:17;18.00;99.90
17483;DHT22;8858;52.308;20.994;2023-06-10T03:19:45;18.00;99.90
17483;DHT22;8858;52.308;20.994;2023-06-10T03:22:16;18.00;99.90
17483;DHT22;8858;52.308;20.994;2023-06-10T03:24:53;18.00;99.90
17483;DHT22;8858;52.308;20.994;2023-06-10T03:27:23;18.00;99.90
17483;DHT22;8858;52.308;20.994;2023-06-10T03:29:54;18.10;99.90
17483;DHT22;8858;52.308;20.994;2023-06-10T03:32:23;18.10;99.90
17483;DHT22;8858;52.308;20.994;2023-06-10T03:34:51;18.20;99.90
17483;DHT22;8858;52.308;20.994;2023-06-10T03:37:29;18.20;99.90
17483;DHT22;8858;52.308;20.994;2023-06-10T03:40:03;18.20;99.90
17483;DHT22;8858;52.308;20.994;2023-06-10T03:42:34;18.20;99.90
17483;DHT22;8858;52.308;20.994;2023-06-10T03:45:03;18.20;99.90
17483;DHT22;8858;52.308;20.994;2023-06-10T03:47:35;18.30;99.90
17483;DHT22;8858;52.308;20.994;2023-06-10T03:50:09;18.30;99.90
17483;DHT22;8858;52.308;20.994;2023-06-10T03:52:40;18.30;99.90
17483;DHT22;8858;52.308;20.994;2023-06-10T03:55:10;18.40;99.90
17483;DHT22;8858;52.308;20.994;2023-06-10T03:57:44;18.50;99.90
17483;DHT22;8858;52.308;20.994;2023-06-10T04:00:14;18.50;99.90
17483;DHT22;8858;52.308;20.994;2023-06-10T04:02:46;18.50;99.90
17483;DHT22;8858;52.308;20.994;2023-06-10T04:05:29;18.50;99.90
17483;DHT22;8858;52.308;20.994;2023-06-10T04:07:59;18.60;99.90
17483;DHT22;8858;52.308;20.994;2023-06-10T04:10:30;18.70;99.90
17483;DHT22;8858;52.308;20.994;2023-06-10T04:13:01;18.70;99.90
17483;DHT22;8858;52.308;20.994;2023-06-10T04:15:36;18.80;99.90
17483;DHT22;8858;52.308;20.994;2023-06-10T04:18:08;18.80;99.90
17483;DHT22;8858;52.308;20.994;2023-06-10T04:20:37;18.90;99.90
17483;DHT22;8858;52.308;20.994;2023-06-10T04:23:06;19.00;99.90
17483;DHT22;8858;52.308;20.994;2023-06-10T04:25:37;19.00;99.90
17483;DHT22;8858;52.308;20.994;2023-06-10T04:28:06;19.10;99.90
17483;DHT22;8858;52.308;20.994;2023-06-10T04:30:36;19.10;99.90
17483;DHT22;8858;52.308;20.994;2023-06-10T04:33:05;19.20;99.90
17483;DHT22;8858;52.308;20.994;2023-06-10T04:35:37;19.30;99.90
17483;DHT22;8858;52.308;20.994;2023-06-10T04:38:08;19.30;99.90
17483;DHT22;8858;52.308;20.994;2023-06-10T04:40:38;19.40;99.90
17483;DHT22;8858;52.308;20.994;2023-06-10T04:43:08;19.40;99.90
17483;DHT22;8858;52.308;20.994;2023-06-10T04:45:37;19.50;99.90
17483;DHT22;8858;52.308;20.994;2023-06-10T04:48:06;19.50;99.90
17483;DHT22;8858;52.308;20.994;2023-06-10T04:50:36;19.60;99.90
17483;DHT22;8858;52.308;20.994;2023-06-10T04:53:04;19.70;99.90
17483;DHT22;8858;52.308;20.994;2023-06-10T04:55:38;19.70;99.90
17483;DHT22;8858;52.308;20.994;2023-06-10T04:58:10;19.70;99.90
17483;DHT22;8858;52.308;20.994;2023-06-10T05:00:42;19.80;99.90
17483;DHT22;8858;52.308;20.994;2023-06-10T05:03:11;19.90;99.90
17483;DHT22;8858;52.308;20.994;2023-06-10T05:05:39;19.90;99.90
17483;DHT22;8858;52.308;20.994;2023-06-10T05:08:08;19.90;99.90
17483;DHT22;8858;52.308;20.994;2023-06-10T05:10:39;20.00;99.90
17483;DHT22;8858;52.308;20.994;2023-06-10T05:13:10;20.00;99.90
17483;DHT22;8858;52.308;20.994;2023-06-10T05:15:39;20.00;99.90
17483;DHT22;8858;52.308;20.994;2023-06-10T05:18:11;20.00;99.90
17483;DHT22;8858;52.308;20.994;2023-06-10T05:20:40;20.00;99.90
17483;DHT22;8858;52.308;20.994;2023-06-10T05:23:08;20.00;99.90
17483;DHT22;8858;52.308;20.994;2023-06-10T05:25:39;20.00;99.90
17483;DHT22;8858;52.308;20.994;2023-06-10T05:28:08;20.00;99.90
17483;DHT22;8858;52.308;20.994;2023-06-10T05:30:44;20.10;99.90
17483;DHT22;8858;52.308;20.994;2023-06-10T05:33:13;20.20;99.90
17483;DHT22;8858;52.308;20.994;2023-06-10T05:35:42;20.20;99.90
17483;DHT22;8858;52.308;20.994;2023-06-10T05:38:11;20.20;99.90
17483;DHT22;8858;52.308;20.994;2023-06-10T05:40:45;20.30;99.90
17483;DHT22;8858;52.308;20.994;2023-06-10T05:43:14;20.30;99.90
17483;DHT22;8858;52.308;20.994;2023-06-10T05:45:43;20.40;99.90
17483;DHT22;8858;52.308;20.994;2023-06-10T05:48:12;20.50;99.90
17483;DHT22;8858;52.308;20.994;2023-06-10T05:50:40;20.50;99.90
17483;DHT22;8858;52.308;20.994;2023-06-10T05:53:10;20.60;99.90
17483;DHT22;8858;52.308;20.994;2023-06-10T05:55:42;20.60;99.90
17483;DHT22;8858;52.308;20.994;2023-06-10T05:58:13;20.60;99.90
17483;DHT22;8858;52.308;20.994;2023-06-10T06:00:42;20.70;99.90
17483;DHT22;8858;52.308;20.994;2023-06-10T06:03:12;20.70;99.90
17483;DHT22;8858;52.308;20.994;2023-06-10T06:05:40;20.80;99.90
17483;DHT22;8858;52.308;20.994;2023-06-10T06:08:10;21.00;99.90
17483;DHT22;8858;52.308;20.994;2023-06-10T06:10:40;21.00;99.90
17483;DHT22;8858;52.308;20.994;2023-06-10T06:13:09;21.10;99.90
17483;DHT22;8858;52.308;20.994;2023-06-10T06:15:38;21.30;99.90
17483;DHT22;8858;52.308;20.994;2023-06-10T06:18:07;21.30;99.90
17483;DHT22;8858;52.308;20.994;2023-06-10T06:20:38;21.30;99.90
17483;DHT22;8858;52.308;20.994;2023-06-10T06:23:07;21.40;99.90
17483;DHT22;8858;52.308;20.994;2023-06-10T06:25:37;21.50;99.90
17483;DHT22;8858;52.308;20.994;2023-06-10T06:28:10;21.50;99.90
17483;DHT22;8858;52.308;20.994;2023-06-10T06:30:40;21.60;99.90
17483;DHT22;8858;52.308;20.994;2023-06-10T06:33:08;21.70;99.90
17483;DHT22;8858;52.308;20.994;2023-06-10T06:35:36;21.80;99.90
17483;DHT22;8858;52.308;20.994;2023-06-10T06:38:05;21.90;99.90
17483;DHT22;8858;52.308;20.994;2023-06-10T06:40:34;22.00;99.90
17483;DHT22;8858;52.308;20.994;2023-06-10T06:43:07;22.20;99.90
17483;DHT22;8858;52.308;20.994;2023-06-10T06:45:56;22.30;99.90
17483;DHT22;8858;52.308;20.994;2023-06-10T06:48:28;22.30;99.90
17483;DHT22;8858;52.308;20.994;2023-06-10T06:50:58;22.40;99.90
17483;DHT22;8858;52.308;20.994;2023-06-10T06:53:26;22.50;99.90
17483;DHT22;8858;52.308;20.994;2023-06-10T06:55:59;22.60;99.90
17483;DHT22;8858;52.308;20.994;2023-06-10T06:58:28;22.70;99.90
17483;DHT22;8858;52.308;20.994;2023-06-10T07:00:59;22.80;99.90
17483;DHT22;8858;52.308;20.994;2023-06-10T07:03:27;22.80;99.90
17483;DHT22;8858;52.308;20.994;2023-06-10T07:05:56;22.90;99.90
17483;DHT22;8858;52.308;20.994;2023-06-10T07:08:24;22.90;99.90
17483;DHT22;8858;52.308;20.994;2023-06-10T07:10:56;22.90;99.90
17483;DHT22;8858;52.308;20.994;2023-06-10T07:13:26;22.90;99.90
17483;DHT22;8858;52.308;20.994;2023-06-10T07:15:54;23.00;99.90
17483;DHT22;8858;52.308;20.994;2023-06-10T07:18:24;23.00;99.90
17483;DHT22;8858;52.308;20.994;2023-06-10T07:20:52;23.10;99.90
17483;DHT22;8858;52.308;20.994;2023-06-10T07:23:20;23.10;99.90
17483;DHT22;8858;52.308;20.994;2023-06-10T07:25:49;23.10;99.90
17483;DHT22;8858;52.308;20.994;2023-06-10T07:28:17;23.20;99.90
17483;DHT22;8858;52.308;20.994;2023-06-10T07:30:46;23.20;99.90
17483;DHT22;8858;52.308;20.994;2023-06-10T07:33:15;23.30;99.90
17483;DHT22;8858;52.308;20.994;2023-06-10T07:35:44;23.40;99.90
17483;DHT22;8858;52.308;20.994;2023-06-10T07:38:13;23.50;99.90
17483;DHT22;8858;52.308;20.994;2023-06-10T07:40:41;23.50;99.90
17483;DHT22;8858;52.308;20.994;2023-06-10T07:43:14;23.60;99.90
17483;DHT22;8858;52.308;20.994;2023-06-10T07:45:42;23.60;99.90
17483;DHT22;8858;52.308;20.994;2023-06-10T07:48:11;23.70;99.90
17483;DHT22;8858;52.308;20.994;2023-06-10T07:50:40;23.80;99.90
17483;DHT22;8858;52.308;20.994;2023-06-10T07:53:09;23.80;99.90
17483;DHT22;8858;52.308;20.994;2023-06-10T07:55:40;23.90;99.90
17483;DHT22;8858;52.308;20.994;2023-06-10T07:58:09;24.00;99.90
17483;DHT22;8858;52.308;20.994;2023-06-10T08:00:37;24.00;99.90
17483;DHT22;8858;52.308;20.994;2023-06-10T08:03:07;24.10;99.90
17483;DHT22;8858;52.308;20.994;2023-06-10T08:05:36;24.10;99.90
17483;DHT22;8858;52.308;20.994;2023-06-10T08:08:04;24.10;99.90
17483;DHT22;8858;52.308;20.994;2023-06-10T08:10:34;24.10;99.90
17483;DHT22;8858;52.308;20.994;2023-06-10T08:13:03;24.00;99.90
17483;DHT22;8858;52.308;20.994;2023-06-10T08:15:31;24.00;99.90
17483;DHT22;8858;52.308;20.994;2023-06-10T08:17:59;24.00;99.90
17483;DHT22;8858;52.308;20.994;2023-06-10T08:20:28;23.90;99.90
17483;DHT22;8858;52.308;20.994;2023-06-10T08:22:56;24.00;99.90
17483;DHT22;8858;52.308;20.994;2023-06-10T08:25:25;24.00;99.90
17483;DHT22;8858;52.308;20.994;2023-06-10T08:28:01;24.00;99.90
17483;DHT22;8858;52.308;20.994;2023-06-10T08:30:29;24.00;99.90
17483;DHT22;8858;52.308;20.994;2023-06-10T08:32:57;23.90;99.80
17483;DHT22;8858;52.308;20.994;2023-06-10T08:35:26;23.90;99.90
17483;DHT22;8858;52.308;20.994;2023-06-10T08:37:54;23.90;99.90
17483;DHT22;8858;52.308;20.994;2023-06-10T08:40:26;23.90;99.90
17483;DHT22;8858;52.308;20.994;2023-06-10T08:43:03;23.90;99.90
17483;DHT22;8858;52.308;20.994;2023-06-10T08:45:35;24.00;99.90
17483;DHT22;8858;52.308;20.994;2023-06-10T08:48:04;24.10;99.90
17483;DHT22;8858;52.308;20.994;2023-06-10T08:50:37;24.20;99.70
17483;DHT22;8858;52.308;20.994;2023-06-10T08:53:09;24.20;99.60
17483;DHT22;8858;52.308;20.994;2023-06-10T08:55:42;24.30;99.20
17483;DHT22;8858;52.308;20.994;2023-06-10T08:58:13;24.40;99.10
17483;DHT22;8858;52.308;20.994;2023-06-10T09:00:44;24.40;98.80
17483;DHT22;8858;52.308;20.994;2023-06-10T09:03:13;24.50;99.00
17483;DHT22;8858;52.308;20.994;2023-06-10T09:05:42;24.60;98.70
17483;DHT22;8858;52.308;20.994;2023-06-10T09:08:11;24.70;97.50
17483;DHT22;8858;52.308;20.994;2023-06-10T09:10:40;24.70;97.40
17483;DHT22;8858;52.308;20.994;2023-06-10T09:13:09;24.80;98.20
17483;DHT22;8858;52.308;20.994;2023-06-10T09:15:40;24.80;97.80
17483;DHT22;8858;52.308;20.994;2023-06-10T09:18:09;24.80;97.70
17483;DHT22;8858;52.308;20.994;2023-06-10T09:20:38;24.90;97.90
17483;DHT22;8858;52.308;20.994;2023-06-10T09:23:07;24.90;97.00
17483;DHT22;8858;52.308;20.994;2023-06-10T09:25:36;25.00;96.90
17483;DHT22;8858;52.308;20.994;2023-06-10T09:28:13;25.10;96.60
17483;DHT22;8858;52.308;20.994;2023-06-10T09:30:43;25.20;96.10
17483;DHT22;8858;52.308;20.994;2023-06-10T09:33:15;25.10;96.10
17483;DHT22;8858;52.308;20.994;2023-06-10T09:35:48;25.10;95.90
17483;DHT22;8858;52.308;20.994;2023-06-10T09:38:20;25.10;95.60
17483;DHT22;8858;52.308;20.994;2023-06-10T09:40:52;25.10;95.30
17483;DHT22;8858;52.308;20.994;2023-06-10T09:43:21;25.00;95.20
17483;DHT22;8858;52.308;20.994;2023-06-10T09:45:51;25.00;94.50
17483;DHT22;8858;52.308;20.994;2023-06-10T09:48:21;25.00;94.80
17483;DHT22;8858;52.308;20.994;2023-06-10T09:50:50;25.10;94.20
17483;DHT22;8858;52.308;20.994;2023-06-10T09:53:19;25.10;93.70
17483;DHT22;8858;52.308;20.994;2023-06-10T09:55:48;25.20;94.10
17483;DHT22;8858;52.308;20.994;2023-06-10T09:58:17;25.20;93.20
17483;DHT22;8858;52.308;20.994;2023-06-10T10:00:54;25.30;92.80
17483;DHT22;8858;52.308;20.994;2023-06-10T10:03:22;25.40;93.40
17483;DHT22;8858;52.308;20.994;2023-06-10T10:05:58;25.40;93.40
17483;DHT22;8858;52.308;20.994;2023-06-10T10:08:27;25.40;92.80
17483;DHT22;8858;52.308;20.994;2023-06-10T10:10:57;25.40;92.40
17483;DHT22;8858;52.308;20.994;2023-06-10T10:13:27;25.40;92.90
17483;DHT22;8858;52.308;20.994;2023-06-10T10:16:01;25.50;92.80
17483;DHT22;8858;52.308;20.994;2023-06-10T10:18:31;25.50;92.30
17483;DHT22;8858;52.308;20.994;2023-06-10T10:21:04;25.60;91.60
17483;DHT22;8858;52.308;20.994;2023-06-10T10:23:38;25.60;91.60
17483;DHT22;8858;52.308;20.994;2023-06-10T10:26:10;25.70;91.70
17483;DHT22;8858;52.308;20.994;2023-06-10T10:28:44;25.70;92.00
17483;DHT22;8858;52.308;20.994;2023-06-10T10:31:19;25.80;92.30
17483;DHT22;8858;52.308;20.994;2023-06-10T10:33:54;25.80;91.50
17483;DHT22;8858;52.308;20.994;2023-06-10T10:36:24;25.90;91.50
17483;DHT22;8858;52.308;20.994;2023-06-10T10:38:53;26.10;91.50
17483;DHT22;8858;52.308;20.994;2023-06-10T10:41:23;26.20;91.40
17483;DHT22;8858;52.308;20.994;2023-06-10T10:43:54;26.30;88.50
17483;DHT22;8858;52.308;20.994;2023-06-10T10:46:24;26.30;90.20
17483;DHT22;8858;52.308;20.994;2023-06-10T10:48:54;26.30;90.10
17483;DHT22;8858;52.308;20.994;2023-06-10T10:51:24;26.40;89.50
17483;DHT22;8858;52.308;20.994;2023-06-10T10:54:12;26.50;88.00
17483;DHT22;8858;52.308;20.994;2023-06-10T10:57:15;26.60;90.00
17483;DHT22;8858;52.308;20.994;2023-06-10T10:59:54;26.80;89.30
17483;DHT22;8858;52.308;20.994;2023-06-10T11:02:36;27.00;87.30
17483;DHT22;8858;52.308;20.994;2023-06-10T11:05:07;27.10;84.40
17483;DHT22;8858;52.308;20.994;2023-06-10T11:07:37;27.20;85.30
17483;DHT22;8858;52.308;20.994;2023-06-10T11:10:07;27.40;83.80
17483;DHT22;8858;52.308;20.994;2023-06-10T11:12:41;27.50;84.40
17483;DHT22;8858;52.308;20.994;2023-06-10T11:15:11;27.50;83.70
17483;DHT22;8858;52.308;20.994;2023-06-10T11:18:09;27.60;85.80
17483;DHT22;8858;52.308;20.994;2023-06-10T11:20:58;27.70;86.70
17483;DHT22;8858;52.308;20.994;2023-06-10T11:23:42;27.80;84.60
17483;DHT22;8858;52.308;20.994;2023-06-10T11:26:29;27.80;85.20
17483;DHT22;8858;52.308;20.994;2023-06-10T11:29:09;28.00;85.70
17483;DHT22;8858;52.308;20.994;2023-06-10T11:31:45;28.10;86.80
17483;DHT22;8858;52.308;20.994;2023-06-10T11:34:21;28.20;86.00
17483;DHT22;8858;52.308;20.994;2023-06-10T11:36:53;28.20;86.00
17483;DHT22;8858;52.308;20.994;2023-06-10T11:39:23;28.10;86.20
17483;DHT22;8858;52.308;20.994;2023-06-10T11:41:54;28.20;86.60
17483;DHT22;8858;52.308;20.994;2023-06-10T11:44:27;28.30;86.40
17483;DHT22;8858;52.308;20.994;2023-06-10T11:46:59;28.50;85.10
17483;DHT22;8858;52.308;20.994;2023-06-10T11:49:28;28.70;86.00
17483;DHT22;8858;52.308;20.994;2023-06-10T11:51:57;28.90;84.70
17483;DHT22;8858;52.308;20.994;2023-06-10T11:54:25;29.10;85.10
17483;DHT22;8858;52.308;20.994;2023-06-10T11:56:57;29.20;85.00
17483;DHT22;8858;52.308;20.994;2023-06-10T11:59:27;29.30;85.60
17483;DHT22;8858;52.308;20.994;2023-06-10T12:01:56;29.30;84.80
17483;DHT22;8858;52.308;20.994;2023-06-10T12:04:24;29.10;84.00
17483;DHT22;8858;52.308;20.994;2023-06-10T12:06:55;29.10;81.80
17483;DHT22;8858;52.308;20.994;2023-06-10T12:09:28;29.10;82.40
17483;DHT22;8858;52.308;20.994;2023-06-10T12:12:01;29.30;83.90
17483;DHT22;8858;52.308;20.994;2023-06-10T12:14:53;29.50;82.40
17483;DHT22;8858;52.308;20.994;2023-06-10T12:17:35;29.70;83.80
17483;DHT22;8858;52.308;20.994;2023-06-10T12:20:06;29.80;80.60
17483;DHT22;8858;52.308;20.994;2023-06-10T12:22:43;30.00;81.60
17483;DHT22;8858;52.308;20.994;2023-06-10T12:25:12;30.20;80.20
17483;DHT22;8858;52.308;20.994;2023-06-10T12:27:50;30.30;79.80
17483;DHT22;8858;52.308;20.994;2023-06-10T12:30:21;30.50;79.50
17483;DHT22;8858;52.308;20.994;2023-06-10T12:32:50;30.50;74.90
17483;DHT22;8858;52.308;20.994;2023-06-10T12:35:21;30.50;75.70
17483;DHT22;8858;52.308;20.994;2023-06-10T12:37:56;30.60;76.70
17483;DHT22;8858;52.308;20.994;2023-06-10T12:40:31;30.80;78.60
17483;DHT22;8858;52.308;20.994;2023-06-10T12:43:00;30.90;78.30
17483;DHT22;8858;52.308;20.994;2023-06-10T12:45:29;31.20;77.00
17483;DHT22;8858;52.308;20.994;2023-06-10T12:48:05;31.40;77.50
17483;DHT22;8858;52.308;20.994;2023-06-10T12:50:37;31.50;78.10
17483;DHT22;8858;52.308;20.994;2023-06-10T12:53:08;31.70;77.60
17483;DHT22;8858;52.308;20.994;2023-06-10T12:55:41;31.90;77.40
17483;DHT22;8858;52.308;20.994;2023-06-10T12:58:09;32.10;77.90
17483;DHT22;8858;52.308;20.994;2023-06-10T13:00:38;32.20;78.10
17483;DHT22;8858;52.308;20.994;2023-06-10T13:03:07;32.40;77.60
17483;DHT22;8858;52.308;20.994;2023-06-10T13:05:36;32.50;77.60
17483;DHT22;8858;52.308;20.994;2023-06-10T13:08:08;32.70;77.20
17483;DHT22;8858;52.308;20.994;2023-06-10T13:10:38;32.80;76.20
17483;DHT22;8858;52.308;20.994;2023-06-10T13:13:07;32.90;76.60
17483;DHT22;8858;52.308;20.994;2023-06-10T13:15:37;32.80;76.40
17483;DHT22;8858;52.308;20.994;2023-06-10T13:18:10;32.90;76.60
17483;DHT22;8858;52.308;20.994;2023-06-10T13:20:39;33.60;73.80
17483;DHT22;8858;52.308;20.994;2023-06-10T13:23:09;34.70;72.70
17483;DHT22;8858;52.308;20.994;2023-06-10T13:25:41;36.60;71.50
17483;DHT22;8858;52.308;20.994;2023-06-10T13:28:11;38.70;68.80
17483;DHT22;8858;52.308;20.994;2023-06-10T13:30:40;39.10;66.00
17483;DHT22;8858;52.308;20.994;2023-06-10T13:33:09;40.40;65.00
17483;DHT22;8858;52.308;20.994;2023-06-10T13:35:38;42.00;63.80
17483;DHT22;8858;52.308;20.994;2023-06-10T13:38:06;43.70;60.50
17483;DHT22;8858;52.308;20.994;2023-06-10T13:40:39;45.20;58.40
17483;DHT22;8858;52.308;20.994;2023-06-10T13:43:07;46.50;57.00
17483;DHT22;8858;52.308;20.994;2023-06-10T13:45:36;48.10;55.60
17483;DHT22;8858;52.308;20.994;2023-06-10T13:48:05;49.40;52.60
17483;DHT22;8858;52.308;20.994;2023-06-10T13:50:34;50.30;51.50
17483;DHT22;8858;52.308;20.994;2023-06-10T13:53:02;51.20;50.50
17483;DHT22;8858;52.308;20.994;2023-06-10T13:55:31;52.10;49.50
17483;DHT22;8858;52.308;20.994;2023-06-10T13:58:01;53.00;47.50
17483;DHT22;8858;52.308;20.994;2023-06-10T14:00:30;53.20;46.80
17483;DHT22;8858;52.308;20.994;2023-06-10T14:02:58;53.60;46.40
17483;DHT22;8858;52.308;20.994;2023-06-10T14:05:29;53.80;46.10
17483;DHT22;8858;52.308;20.994;2023-06-10T14:07:58;53.60;45.70
17483;DHT22;8858;52.308;20.994;2023-06-10T14:10:28;53.50;46.00
17483;DHT22;8858;52.308;20.994;2023-06-10T14:12:56;53.00;45.70
17483;DHT22;8858;52.308;20.994;2023-06-10T14:15:26;53.30;45.70
17483;DHT22;8858;52.308;20.994;2023-06-10T14:17:54;53.50;45.50
17483;DHT22;8858;52.308;20.994;2023-06-10T14:20:23;53.30;45.20
17483;DHT22;8858;52.308;20.994;2023-06-10T14:22:55;52.00;45.70
17483;DHT22;8858;52.308;20.994;2023-06-10T14:25:23;51.10;46.10
17483;DHT22;8858;52.308;20.994;2023-06-10T14:27:52;50.90;46.30
17483;DHT22;8858;52.308;20.994;2023-06-10T14:30:20;51.10;46.00
17483;DHT22;8858;52.308;20.994;2023-06-10T14:32:50;50.70;46.20
17483;DHT22;8858;52.308;20.994;2023-06-10T14:35:21;50.50;46.30
17483;DHT22;8858;52.308;20.994;2023-06-10T14:37:54;50.80;46.30
17483;DHT22;8858;52.308;20.994;2023-06-10T14:40:22;51.20;46.10
17483;DHT22;8858;52.308;20.994;2023-06-10T14:42:53;52.00;45.10
17483;DHT22;8858;52.308;20.994;2023-06-10T14:45:22;52.40;45.30
17483;DHT22;8858;52.308;20.994;2023-06-10T14:47:54;52.50;44.70
17483;DHT22;8858;52.308;20.994;2023-06-10T14:50:22;52.60;45.00
17483;DHT22;8858;52.308;20.994;2023-06-10T14:52:51;52.80;44.50
17483;DHT22;8858;52.308;20.994;2023-06-10T14:55:21;52.60;44.80
17483;DHT22;8858;52.308;20.994;2023-06-10T14:57:56;52.20;45.20
17483;DHT22;8858;52.308;20.994;2023-06-10T15:00:25;52.10;45.40
17483;DHT22;8858;52.308;20.994;2023-06-10T15:02:54;52.10;44.90
17483;DHT22;8858;52.308;20.994;2023-06-10T15:05:26;52.00;44.70
17483;DHT22;8858;52.308;20.994;2023-06-10T15:07:55;51.60;44.80
17483;DHT22;8858;52.308;20.994;2023-06-10T15:10:23;51.40;45.10
17483;DHT22;8858;52.308;20.994;2023-06-10T15:12:52;51.30;45.30
17483;DHT22;8858;52.308;20.994;2023-06-10T15:15:23;51.00;45.60
17483;DHT22;8858;52.308;20.994;2023-06-10T15:17:58;50.90;45.60
17483;DHT22;8858;52.308;20.994;2023-06-10T15:20:27;50.90;45.80
17483;DHT22;8858;52.308;20.994;2023-06-10T15:22:56;51.10;45.30
17483;DHT22;8858;52.308;20.994;2023-06-10T15:25:24;51.30;44.60
17483;DHT22;8858;52.308;20.994;2023-06-10T15:27:57;51.30;43.80
17483;DHT22;8858;52.308;20.994;2023-06-10T15:30:28;50.80;44.70
17483;DHT22;8858;52.308;20.994;2023-06-10T15:32:58;50.50;44.90
17483;DHT22;8858;52.308;20.994;2023-06-10T15:35:30;50.50;45.30
17483;DHT22;8858;52.308;20.994;2023-06-10T15:37:58;50.60;45.30
17483;DHT22;8858;52.308;20.994;2023-06-10T15:40:29;50.50;45.30
17483;DHT22;8858;52.308;20.994;2023-06-10T15:43:00;50.70;45.60
17483;DHT22;8858;52.308;20.994;2023-06-10T15:45:31;50.80;44.90
17483;DHT22;8858;52.308;20.994;2023-06-10T15:48:04;50.70;45.00
17483;DHT22;8858;52.308;20.994;2023-06-10T15:50:33;50.70;45.30
17483;DHT22;8858;52.308;20.994;2023-06-10T15:53:02;50.60;45.30